sensor_id;sensor_type;location;lat;lon;timestamp;temperature;humidity
12452;DHT22;6291;48.924;12.204;2022-11-20T00:04:28;1.20;99.90
12452;DHT22;6291;48.924;12.204;2022-11-20T00:09:31;1.20;99.90
12452;DHT22;6291;48.924;12.204;2022-11-20T00:14:34;1.20;99.90
12452;DHT22;6291;48.924;12.204;2022-11-20T00:19:39;1.30;99.90
12452;DHT22;6291;48.924;12.204;2022-11-20T00:24:42;1.90;99.90
12452;DHT22;6291;48.924;12.204;2022-11-20T00:29:46;1.50;99.90
12452;DHT22;6291;48.924;12.204;2022-11-20T00:34:50;2.00;99.90
12452;DHT22;6291;48.924;12.204;2022-11-20T00:39:54;1.40;99.90
12452;DHT22;6291;48.924;12.204;2022-11-20T00:44:57;1.30;99.90
12452;DHT22;6291;48.924;12.204;2022-11-20T00:50:02;1.40;99.90
12452;DHT22;6291;48.924;12.204;2022-11-20T00:55:06;1.60;99.90
12452;DHT22;6291;48.924;12.204;2022-11-20T01:00:10;1.50;99.90
12452;DHT22;6291;48.924;12.204;2022-11-20T01:05:15;1.40;99.90
12452;DHT22;6291;48.924;12.204;2022-11-20T01:10:18;1.30;99.90
12452;DHT22;6291;48.924;12.204;2022-11-20T01:15:22;1.30;99.90
12452;DHT22;6291;48.924;12.204;2022-11-20T01:20:26;1.30;99.90
12452;DHT22;6291;48.924;12.204;2022-11-20T01:25:30;1.20;99.90
12452;DHT22;6291;48.924;12.204;2022-11-20T01:30:33;1.30;99.90
12452;DHT22;6291;48.924;12.204;2022-11-20T01:35:38;1.20;99.90
12452;DHT22;6291;48.924;12.204;2022-11-20T01:40:41;1.30;99.90
12452;DHT22;6291;48.924;12.204;2022-11-20T01:45:57;1.30;99.90
12452;DHT22;6291;48.924;12.204;2022-11-20T01:51:03;1.30;99.90
12452;DHT22;6291;48.924;12.204;2022-11-20T01:56:09;1.20;99.90
12452;DHT22;6291;48.924;12.204;2022-11-20T02:01:15;1.20;99.90
12452;DHT22;6291;48.924;12.204;2022-11-20T02:06:25;1.50;99.90
12452;DHT22;6291;48.924;12.204;2022-11-20T02:11:30;1.60;99.90
12452;DHT22;6291;48.924;12.204;2022-11-20T02:16:35;1.50;99.90
12452;DHT22;6291;48.924;12.204;2022-11-20T02:21:45;1.40;99.90
12452;DHT22;6291;48.924;12.204;2022-11-20T02:26:54;1.30;99.90
12452;DHT22;6291;48.924;12.204;2022-11-20T02:31:59;1.30;99.90
12452;DHT22;6291;48.924;12.204;2022-11-20T02:37:03;1.30;99.90
12452;DHT22;6291;48.924;12.204;2022-11-20T02:42:08;1.30;99.90
12452;DHT22;6291;48.924;12.204;2022-11-20T02:47:11;1.30;99.90
12452;DHT22;6291;48.924;12.204;2022-11-20T02:52:14;1.30;99.90
12452;DHT22;6291;48.924;12.204;2022-11-20T02:57:19;1.40;99.90
12452;DHT22;6291;48.924;12.204;2022-11-20T03:02:23;1.60;99.90
12452;DHT22;6291;48.924;12.204;2022-11-20T03:07:26;3.50;99.90
12452;DHT22;6291;48.924;12.204;2022-11-20T03:12:31;1.40;99.90
12452;DHT22;6291;48.924;12.204;2022-11-20T03:17:34;1.50;99.90
12452;DHT22;6291;48.924;12.204;2022-11-20T03:22:37;1.50;99.90
12452;DHT22;6291;48.924;12.204;2022-11-20T03:27:42;1.60;99.90
12452;DHT22;6291;48.924;12.204;2022-11-20T03:32:45;1.50;99.90
12452;DHT22;6291;48.924;12.204;2022-11-20T03:37:48;1.50;99.90
12452;DHT22;6291;48.924;12.204;2022-11-20T03:42:53;1.70;99.90
12452;DHT22;6291;48.924;12.204;2022-11-20T03:47:56;1.80;99.90
12452;DHT22;6291;48.924;12.204;2022-11-20T03:53:00;1.80;99.90
12452;DHT22;6291;48.924;12.204;2022-11-20T03:58:04;1.70;99.90
12452;DHT22;6291;48.924;12.204;2022-11-20T04:03:08;1.60;99.90
12452;DHT22;6291;48.924;12.204;2022-11-20T04:08:11;1.80;99.90
12452;DHT22;6291;48.924;12.204;2022-11-20T04:13:16;1.90;99.90
12452;DHT22;6291;48.924;12.204;2022-11-20T04:18:19;1.90;99.90
12452;DHT22;6291;48.924;12.204;2022-11-20T04:23:23;2.00;99.90
12452;DHT22;6291;48.924;12.204;2022-11-20T04:28:31;2.20;99.90
12452;DHT22;6291;48.924;12.204;2022-11-20T04:33:35;2.20;99.90
12452;DHT22;6291;48.924;12.204;2022-11-20T04:38:38;2.00;99.90
12452;DHT22;6291;48.924;12.204;2022-11-20T04:43:46;2.10;99.90
12452;DHT22;6291;48.924;12.204;2022-11-20T04:48:49;1.80;99.90
12452;DHT22;6291;48.924;12.204;2022-11-20T04:53:53;1.70;99.90
12452;DHT22;6291;48.924;12.204;2022-11-20T04:59:01;1.70;99.90
12452;DHT22;6291;48.924;12.204;2022-11-20T05:04:05;1.90;99.90
12452;DHT22;6291;48.924;12.204;2022-11-20T05:09:09;1.90;99.90
12452;DHT22;6291;48.924;12.204;2022-11-20T05:14:14;1.90;99.90
12452;DHT22;6291;48.924;12.204;2022-11-20T05:19:17;2.00;99.90
12452;DHT22;6291;48.924;12.204;2022-11-20T05:24:21;2.20;99.90
12452;DHT22;6291;48.924;12.204;2022-11-20T05:29:26;2.20;99.90
12452;DHT22;6291;48.924;12.204;2022-11-20T05:34:29;2.00;99.90
12452;DHT22;6291;48.924;12.204;2022-11-20T05:39:32;2.10;99.90
12452;DHT22;6291;48.924;12.204;2022-11-20T05:44:37;2.00;99.90
12452;DHT22;6291;48.924;12.204;2022-11-20T05:49:40;2.10;99.90
12452;DHT22;6291;48.924;12.204;2022-11-20T05:54:44;2.00;99.90
12452;DHT22;6291;48.924;12.204;2022-11-20T05:59:48;2.00;99.90
12452;DHT22;6291;48.924;12.204;2022-11-20T06:04:52;2.10;99.90
12452;DHT22;6291;48.924;12.204;2022-11-20T06:09:55;2.20;99.90
12452;DHT22;6291;48.924;12.204;2022-11-20T06:15:00;2.20;99.90
12452;DHT22;6291;48.924;12.204;2022-11-20T06:20:04;2.20;99.90
12452;DHT22;6291;48.924;12.204;2022-11-20T06:25:08;2.30;99.90
12452;DHT22;6291;48.924;12.204;2022-11-20T06:30:13;2.40;99.90
12452;DHT22;6291;48.924;12.204;2022-11-20T06:35:16;2.30;99.90
12452;DHT22;6291;48.924;12.204;2022-11-20T06:40:20;2.30;99.90
12452;DHT22;6291;48.924;12.204;2022-11-20T06:45:24;2.70;99.90
12452;DHT22;6291;48.924;12.204;2022-11-20T06:50:28;2.60;99.90
12452;DHT22;6291;48.924;12.204;2022-11-20T06:55:31;2.70;99.90
12452;DHT22;6291;48.924;12.204;2022-11-20T07:00:36;2.70;99.90
12452;DHT22;6291;48.924;12.204;2022-11-20T07:05:40;2.60;99.90
12452;DHT22;6291;48.924;12.204;2022-11-20T07:10:43;2.60;99.90
12452;DHT22;6291;48.924;12.204;2022-11-20T07:15:48;2.60;99.90
12452;DHT22;6291;48.924;12.204;2022-11-20T07:20:51;2.60;99.90
12452;DHT22;6291;48.924;12.204;2022-11-20T07:25:55;2.60;99.90
12452;DHT22;6291;48.924;12.204;2022-11-20T07:31:00;2.60;99.90
12452;DHT22;6291;48.924;12.204;2022-11-20T07:36:04;2.80;99.90
12452;DHT22;6291;48.924;12.204;2022-11-20T07:41:07;2.80;99.90
12452;DHT22;6291;48.924;12.204;2022-11-20T07:46:12;3.00;99.90
12452;DHT22;6291;48.924;12.204;2022-11-20T07:51:15;3.00;99.90
12452;DHT22;6291;48.924;12.204;2022-11-20T07:56:19;3.00;99.90
12452;DHT22;6291;48.924;12.204;2022-11-20T08:01:23;3.20;99.90
12452;DHT22;6291;48.924;12.204;2022-11-20T08:06:27;3.40;99.90
12452;DHT22;6291;48.924;12.204;2022-11-20T08:11:30;3.50;99.90
12452;DHT22;6291;48.924;12.204;2022-11-20T08:16:52;3.50;99.90
12452;DHT22;6291;48.924;12.204;2022-11-20T08:21:56;3.50;99.90
12452;DHT22;6291;48.924;12.204;2022-11-20T08:26:59;3.80;99.90
12452;DHT22;6291;48.924;12.204;2022-11-20T08:32:04;3.90;99.90
12452;DHT22;6291;48.924;12.204;2022-11-20T08:37:08;4.10;99.90
12452;DHT22;6291;48.924;12.204;2022-11-20T08:42:11;4.20;99.90
12452;DHT22;6291;48.924;12.204;2022-11-20T08:47:15;4.30;99.90
12452;DHT22;6291;48.924;12.204;2022-11-20T08:52:19;4.30;99.90
12452;DHT22;6291;48.924;12.204;2022-11-20T08:57:22;4.40;99.90
12452;DHT22;6291;48.924;12.204;2022-11-20T09:02:27;4.50;99.90
12452;DHT22;6291;48.924;12.204;2022-11-20T09:07:30;4.60;99.90
12452;DHT22;6291;48.924;12.204;2022-11-20T09:12:34;6.70;99.90
12452;DHT22;6291;48.924;12.204;2022-11-20T09:17:39;4.60;99.90
12452;DHT22;6291;48.924;12.204;2022-11-20T09:22:43;4.70;99.90
12452;DHT22;6291;48.924;12.204;2022-11-20T09:27:46;4.90;99.90
12452;DHT22;6291;48.924;12.204;2022-11-20T09:32:51;5.00;99.90
12452;DHT22;6291;48.924;12.204;2022-11-20T09:37:54;5.10;99.90
12452;DHT22;6291;48.924;12.204;2022-11-20T09:43:03;5.30;99.90
12452;DHT22;6291;48.924;12.204;2022-11-20T09:48:36;5.30;99.90
12452;DHT22;6291;48.924;12.204;2022-11-20T09:53:53;5.30;99.90
12452;DHT22;6291;48.924;12.204;2022-11-20T09:59:02;5.40;99.90
12452;DHT22;6291;48.924;12.204;2022-11-20T10:04:12;5.50;99.90
12452;DHT22;6291;48.924;12.204;2022-11-20T10:09:21;5.60;99.90
12452;DHT22;6291;48.924;12.204;2022-11-20T10:14:37;5.60;99.90
12452;DHT22;6291;48.924;12.204;2022-11-20T10:19:56;5.70;99.90
12452;DHT22;6291;48.924;12.204;2022-11-20T10:25:08;5.60;99.90
12452;DHT22;6291;48.924;12.204;2022-11-20T10:30:19;5.70;99.90
12452;DHT22;6291;48.924;12.204;2022-11-20T10:35:35;5.70;99.90
12452;DHT22;6291;48.924;12.204;2022-11-20T10:40:44;5.70;99.90
12452;DHT22;6291;48.924;12.204;2022-11-20T10:45:55;5.70;99.90
12452;DHT22;6291;48.924;12.204;2022-11-20T10:51:07;5.80;99.90
12452;DHT22;6291;48.924;12.204;2022-11-20T10:56:19;5.80;99.90
12452;DHT22;6291;48.924;12.204;2022-11-20T11:01:23;5.90;99.90
12452;DHT22;6291;48.924;12.204;2022-11-20T11:06:34;5.90;99.90
12452;DHT22;6291;48.924;12.204;2022-11-20T11:11:39;5.90;99.90
12452;DHT22;6291;48.924;12.204;2022-11-20T11:16:49;6.00;99.90
12452;DHT22;6291;48.924;12.204;2022-11-20T11:21:56;6.10;99.90
12452;DHT22;6291;48.924;12.204;2022-11-20T11:27:01;6.00;99.90
12452;DHT22;6291;48.924;12.204;2022-11-20T11:32:07;6.00;99.90
12452;DHT22;6291;48.924;12.204;2022-11-20T11:37:18;6.00;99.90
12452;DHT22;6291;48.924;12.204;2022-11-20T11:42:23;6.20;99.90
12452;DHT22;6291;48.924;12.204;2022-11-20T11:47:30;6.20;99.90
12452;DHT22;6291;48.924;12.204;2022-11-20T11:52:41;6.30;99.90
12452;DHT22;6291;48.924;12.204;2022-11-20T11:57:49;6.30;99.90
12452;DHT22;6291;48.924;12.204;2022-11-20T12:03:00;6.30;99.90
12452;DHT22;6291;48.924;12.204;2022-11-20T12:08:15;6.30;99.90
12452;DHT22;6291;48.924;12.204;2022-11-20T12:13:30;6.20;99.90
12452;DHT22;6291;48.924;12.204;2022-11-20T12:18:35;6.20;99.90
12452;DHT22;6291;48.924;12.204;2022-11-20T12:23:48;6.10;99.90
12452;DHT22;6291;48.924;12.204;2022-11-20T12:29:01;6.10;99.90
12452;DHT22;6291;48.924;12.204;2022-11-20T12:34:24;6.10;99.90
12452;DHT22;6291;48.924;12.204;2022-11-20T12:39:41;6.10;99.90
12452;DHT22;6291;48.924;12.204;2022-11-20T12:50:30;6.10;99.90
12452;DHT22;6291;48.924;12.204;2022-11-20T12:56:01;6.10;99.90
12452;DHT22;6291;48.924;12.204;2022-11-20T13:01:24;6.10;99.90
12452;DHT22;6291;48.924;12.204;2022-11-20T13:06:48;6.20;99.90
12452;DHT22;6291;48.924;12.204;2022-11-20T13:17:05;6.30;99.90
12452;DHT22;6291;48.924;12.204;2022-11-20T13:22:11;6.30;99.90
12452;DHT22;6291;48.924;12.204;2022-11-20T13:27:23;6.30;99.90
12452;DHT22;6291;48.924;12.204;2022-11-20T13:32:26;6.30;99.90
12452;DHT22;6291;48.924;12.204;2022-11-20T13:37:35;6.20;99.90
12452;DHT22;6291;48.924;12.204;2022-11-20T13:42:44;6.20;99.90
12452;DHT22;6291;48.924;12.204;2022-11-20T13:47:49;6.30;99.90
12452;DHT22;6291;48.924;12.204;2022-11-20T13:52:58;6.20;99.90
12452;DHT22;6291;48.924;12.204;2022-11-20T13:58:19;6.20;99.90
12452;DHT22;6291;48.924;12.204;2022-11-20T14:03:31;6.30;99.90
12452;DHT22;6291;48.924;12.204;2022-11-20T14:08:56;6.30;99.90
12452;DHT22;6291;48.924;12.204;2022-11-20T14:14:03;6.30;99.90
12452;DHT22;6291;48.924;12.204;2022-11-20T14:19:28;6.30;99.90
12452;DHT22;6291;48.924;12.204;2022-11-20T14:24:32;6.30;99.90
12452;DHT22;6291;48.924;12.204;2022-11-20T14:29:38;6.30;99.90
12452;DHT22;6291;48.924;12.204;2022-11-20T14:34:44;6.30;99.90
12452;DHT22;6291;48.924;12.204;2022-11-20T14:39:51;6.30;99.90
12452;DHT22;6291;48.924;12.204;2022-11-20T14:44:57;6.30;99.90
12452;DHT22;6291;48.924;12.204;2022-11-20T14:50:02;6.30;99.90
12452;DHT22;6291;48.924;12.204;2022-11-20T14:55:14;6.30;99.90
12452;DHT22;6291;48.924;12.204;2022-11-20T15:00:32;6.30;99.90
12452;DHT22;6291;48.924;12.204;2022-11-20T15:05:47;6.00;99.90
12452;DHT22;6291;48.924;12.204;2022-11-20T15:10:51;6.20;99.90
12452;DHT22;6291;48.924;12.204;2022-11-20T15:15:59;6.30;99.90
12452;DHT22;6291;48.924;12.204;2022-11-20T15:21:07;6.30;99.90
12452;DHT22;6291;48.924;12.204;2022-11-20T15:26:16;6.30;99.90
12452;DHT22;6291;48.924;12.204;2022-11-20T15:31:24;6.30;99.90
12452;DHT22;6291;48.924;12.204;2022-11-20T15:36:28;6.20;99.90
12452;DHT22;6291;48.924;12.204;2022-11-20T15:41:32;6.20;99.90
12452;DHT22;6291;48.924;12.204;2022-11-20T15:46:40;6.20;99.90
12452;DHT22;6291;48.924;12.204;2022-11-20T15:51:48;6.10;99.90
12452;DHT22;6291;48.924;12.204;2022-11-20T15:56:51;6.20;99.90
12452;DHT22;6291;48.924;12.204;2022-11-20T16:01:56;6.20;99.90
12452;DHT22;6291;48.924;12.204;2022-11-20T16:07:00;6.20;99.90
12452;DHT22;6291;48.924;12.204;2022-11-20T16:17:08;6.10;99.90
12452;DHT22;6291;48.924;12.204;2022-11-20T16:27:15;5.90;99.90
12452;DHT22;6291;48.924;12.204;2022-11-20T16:32:20;5.80;99.90
12452;DHT22;6291;48.924;12.204;2022-11-20T16:37:24;5.70;99.90
12452;DHT22;6291;48.924;12.204;2022-11-20T16:42:27;5.60;99.90
12452;DHT22;6291;48.924;12.204;2022-11-20T16:47:34;5.40;99.90
12452;DHT22;6291;48.924;12.204;2022-11-20T16:52:38;9.20;99.90
12452;DHT22;6291;48.924;12.204;2022-11-20T16:57:43;5.20;99.90
12452;DHT22;6291;48.924;12.204;2022-11-20T17:02:48;5.10;99.90
12452;DHT22;6291;48.924;12.204;2022-11-20T17:07:52;5.10;99.90
12452;DHT22;6291;48.924;12.204;2022-11-20T17:12:56;5.00;99.90
12452;DHT22;6291;48.924;12.204;2022-11-20T17:18:00;4.60;99.90
12452;DHT22;6291;48.924;12.204;2022-11-20T17:23:04;4.30;99.90
12452;DHT22;6291;48.924;12.204;2022-11-20T17:28:09;4.10;99.90
12452;DHT22;6291;48.924;12.204;2022-11-20T17:33:14;3.90;99.90
12452;DHT22;6291;48.924;12.204;2022-11-20T17:38:18;3.80;99.90
12452;DHT22;6291;48.924;12.204;2022-11-20T17:43:22;3.70;99.90
12452;DHT22;6291;48.924;12.204;2022-11-20T17:48:29;3.50;99.90
12452;DHT22;6291;48.924;12.204;2022-11-20T17:53:35;3.50;99.90
12452;DHT22;6291;48.924;12.204;2022-11-20T17:58:39;3.50;99.90
12452;DHT22;6291;48.924;12.204;2022-11-20T18:03:44;3.60;99.90
12452;DHT22;6291;48.924;12.204;2022-11-20T18:08:49;3.50;99.90
12452;DHT22;6291;48.924;12.204;2022-11-20T18:13:54;3.40;99.90
12452;DHT22;6291;48.924;12.204;2022-11-20T18:19:18;3.30;99.90
12452;DHT22;6291;48.924;12.204;2022-11-20T18:24:22;3.20;99.90
12452;DHT22;6291;48.924;12.204;2022-11-20T18:29:26;3.10;99.90
12452;DHT22;6291;48.924;12.204;2022-11-20T18:34:31;3.20;99.90
12452;DHT22;6291;48.924;12.204;2022-11-20T18:39:34;3.20;99.90
12452;DHT22;6291;48.924;12.204;2022-11-20T18:44:37;3.10;99.90
12452;DHT22;6291;48.924;12.204;2022-11-20T18:49:55;3.10;99.90
12452;DHT22;6291;48.924;12.204;2022-11-20T18:54:59;3.10;99.90
12452;DHT22;6291;48.924;12.204;2022-11-20T19:00:04;3.00;99.90
12452;DHT22;6291;48.924;12.204;2022-11-20T19:05:13;2.90;99.90
12452;DHT22;6291;48.924;12.204;2022-11-20T19:10:18;2.90;99.90
12452;DHT22;6291;48.924;12.204;2022-11-20T19:15:22;2.90;99.90
12452;DHT22;6291;48.924;12.204;2022-11-20T19:20:27;2.90;99.90
12452;DHT22;6291;48.924;12.204;2022-11-20T19:25:30;2.90;99.90
12452;DHT22;6291;48.924;12.204;2022-11-20T19:30:39;2.90;99.90
12452;DHT22;6291;48.924;12.204;2022-11-20T19:35:44;3.10;99.90
12452;DHT22;6291;48.924;12.204;2022-11-20T19:40:47;3.70;99.90
12452;DHT22;6291;48.924;12.204;2022-11-20T19:45:51;2.80;99.90
12452;DHT22;6291;48.924;12.204;2022-11-20T19:50:55;2.70;99.90
12452;DHT22;6291;48.924;12.204;2022-11-20T19:55:59;2.90;99.90
12452;DHT22;6291;48.924;12.204;2022-11-20T20:01:06;3.20;99.90
12452;DHT22;6291;48.924;12.204;2022-11-20T20:06:14;3.30;99.90
12452;DHT22;6291;48.924;12.204;2022-11-20T20:11:20;3.40;99.90
12452;DHT22;6291;48.924;12.204;2022-11-20T20:16:24;3.50;99.90
12452;DHT22;6291;48.924;12.204;2022-11-20T20:21:31;3.60;99.90
12452;DHT22;6291;48.924;12.204;2022-11-20T20:26:35;3.50;99.90
12452;DHT22;6291;48.924;12.204;2022-11-20T20:31:39;3.40;99.90
12452;DHT22;6291;48.924;12.204;2022-11-20T20:36:43;3.40;99.90
12452;DHT22;6291;48.924;12.204;2022-11-20T20:41:47;3.20;99.90
12452;DHT22;6291;48.924;12.204;2022-11-20T20:46:50;3.10;99.90
12452;DHT22;6291;48.924;12.204;2022-11-20T20:51:55;3.00;99.90
12452;DHT22;6291;48.924;12.204;2022-11-20T20:56:59;3.00;99.90
12452;DHT22;6291;48.924;12.204;2022-11-20T21:02:02;3.20;99.90
12452;DHT22;6291;48.924;12.204;2022-11-20T21:07:07;3.00;99.90
12452;DHT22;6291;48.924;12.204;2022-11-20T21:12:12;3.00;99.90
12452;DHT22;6291;48.924;12.204;2022-11-20T21:17:15;3.00;99.90
12452;DHT22;6291;48.924;12.204;2022-11-20T21:22:20;3.10;99.90
12452;DHT22;6291;48.924;12.204;2022-11-20T21:27:24;3.10;99.90
12452;DHT22;6291;48.924;12.204;2022-11-20T21:32:29;3.10;99.90
12452;DHT22;6291;48.924;12.204;2022-11-20T21:37:34;3.00;99.90
12452;DHT22;6291;48.924;12.204;2022-11-20T21:42:41;4.20;99.90
12452;DHT22;6291;48.924;12.204;2022-11-20T21:47:47;3.40;99.90
12452;DHT22;6291;48.924;12.204;2022-11-20T21:52:52;3.70;99.90
12452;DHT22;6291;48.924;12.204;2022-11-20T21:57:56;3.90;99.90
12452;DHT22;6291;48.924;12.204;2022-11-20T22:02:59;4.00;99.90
12452;DHT22;6291;48.924;12.204;2022-11-20T22:08:04;4.10;99.90
12452;DHT22;6291;48.924;12.204;2022-11-20T22:13:08;4.10;99.90
12452;DHT22;6291;48.924;12.204;2022-11-20T22:18:29;4.20;99.90
12452;DHT22;6291;48.924;12.204;2022-11-20T22:23:34;4.60;99.90
12452;DHT22;6291;48.924;12.204;2022-11-20T22:28:38;4.70;99.90
12452;DHT22;6291;48.924;12.204;2022-11-20T22:33:41;4.60;99.90
12452;DHT22;6291;48.924;12.204;2022-11-20T22:38:46;4.60;99.90
12452;DHT22;6291;48.924;12.204;2022-11-20T22:43:53;4.50;99.90
12452;DHT22;6291;48.924;12.204;2022-11-20T22:48:58;4.50;99.90
12452;DHT22;6291;48.924;12.204;2022-11-20T22:54:04;4.40;99.90
12452;DHT22;6291;48.924;12.204;2022-11-20T22:59:07;4.40;99.90
12452;DHT22;6291;48.924;12.204;2022-11-20T23:04:11;4.30;99.90
12452;DHT22;6291;48.924;12.204;2022-11-20T23:09:15;4.30;99.90
12452;DHT22;6291;48.924;12.204;2022-11-20T23:14:19;4.30;99.90
12452;DHT22;6291;48.924;12.204;2022-11-20T23:19:28;4.30;99.90
12452;DHT22;6291;48.924;12.204;2022-11-20T23:24:33;4.20;99.90
12452;DHT22;6291;48.924;12.204;2022-11-20T23:29:36;4.20;99.90
12452;DHT22;6291;48.924;12.204;2022-11-20T23:34:39;4.20;99.90
12452;DHT22;6291;48.924;12.204;2022-11-20T23:39:44;4.20;99.90
12452;DHT22;6291;48.924;12.204;2022-11-20T23:44:47;4.20;99.90
12452;DHT22;6291;48.924;12.204;2022-11-20T23:54:56;4.40;99.90
